sensor_id;sensor_type;location;lat;lon;timestamp;pressure;altitude;pressure_sealevel;temperature;humidity
29385;BME280;16367;48.736;9.218;2024-03-08T00:00:45;-23256.34;;;2.78;100.00
29385;BME280;16367;48.736;9.218;2024-03-08T00:02:48;-23255.38;;;2.75;100.00
29385;BME280;16367;48.736;9.218;2024-03-08T00:04:52;-23255.38;;;2.75;100.00
29385;BME280;16367;48.736;9.218;2024-03-08T00:06:55;-23254.09;;;2.71;100.00
29385;BME280;16367;48.736;9.218;2024-03-08T00:09:00;-23255.53;;;2.75;100.00
29385;BME280;16367;48.736;9.218;2024-03-08T00:11:03;-23255.38;;;2.75;100.00
29385;BME280;16367;48.736;9.218;2024-03-08T00:13:06;-23252.81;;;2.67;100.00
29385;BME280;16367;48.736;9.218;2024-03-08T00:15:09;-23253.16;;;2.68;100.00
29385;BME280;16367;48.736;9.218;2024-03-08T00:17:12;-23255.06;;;2.74;100.00
29385;BME280;16367;48.736;9.218;2024-03-08T00:19:15;-23252.03;;;2.64;100.00
29385;BME280;16367;48.736;9.218;2024-03-08T00:21:17;-23251.88;;;2.64;100.00
29385;BME280;16367;48.736;9.218;2024-03-08T00:23:20;-23250.91;;;2.61;100.00
29385;BME280;16367;48.736;9.218;2024-03-08T00:25:24;-23250.28;;;2.59;100.00
29385;BME280;16367;48.736;9.218;2024-03-08T00:27:27;-23252.19;;;2.65;100.00
29385;BME280;16367;48.736;9.218;2024-03-08T00:29:32;-23252.19;;;2.65;100.00
29385;BME280;16367;48.736;9.218;2024-03-08T00:31:36;-23250.75;;;2.60;100.00
29385;BME280;16367;48.736;9.218;2024-03-08T00:33:38;-23251.22;;;2.62;100.00
29385;BME280;16367;48.736;9.218;2024-03-08T00:35:41;-23249.97;;;2.58;100.00
29385;BME280;16367;48.736;9.218;2024-03-08T00:37:44;-23249.63;;;2.57;100.00
29385;BME280;16367;48.736;9.218;2024-03-08T00:39:49;-23249.47;;;2.56;100.00
29385;BME280;16367;48.736;9.218;2024-03-08T00:41:53;-23249.63;;;2.57;100.00
29385;BME280;16367;48.736;9.218;2024-03-08T00:43:56;-23247.56;;;2.50;100.00
29385;BME280;16367;48.736;9.218;2024-03-08T00:45:59;-23247.25;;;2.49;100.00
29385;BME280;16367;48.736;9.218;2024-03-08T00:48:01;-23247.72;;;2.51;100.00
29385;BME280;16367;48.736;9.218;2024-03-08T00:50:05;-23246.78;;;2.48;100.00
29385;BME280;16367;48.736;9.218;2024-03-08T00:52:08;-23247.88;;;2.51;100.00
29385;BME280;16367;48.736;9.218;2024-03-08T00:54:10;-23246.78;;;2.48;100.00
29385;BME280;16367;48.736;9.218;2024-03-08T00:56:13;-23246.78;;;2.48;100.00
29385;BME280;16367;48.736;9.218;2024-03-08T00:58:17;-23247.09;;;2.49;100.00
29385;BME280;16367;48.736;9.218;2024-03-08T01:00:21;-23245.97;;;2.45;100.00
29385;BME280;16367;48.736;9.218;2024-03-08T01:02:23;-23245.97;;;2.45;100.00
29385;BME280;16367;48.736;9.218;2024-03-08T01:04:26;-23247.56;;;2.50;100.00
29385;BME280;16367;48.736;9.218;2024-03-08T01:06:30;-23247.72;;;2.51;100.00
29385;BME280;16367;48.736;9.218;2024-03-08T01:08:33;-23246.44;;;2.47;100.00
29385;BME280;16367;48.736;9.218;2024-03-08T01:10:35;-23246.44;;;2.47;100.00
29385;BME280;16367;48.736;9.218;2024-03-08T01:12:38;-23244.22;;;2.40;100.00
29385;BME280;16367;48.736;9.218;2024-03-08T01:14:42;-23241.50;;;2.31;100.00
29385;BME280;16367;48.736;9.218;2024-03-08T01:16:45;-23245.50;;;2.44;100.00
29385;BME280;16367;48.736;9.218;2024-03-08T01:18:48;-23241.97;;;2.33;100.00
29385;BME280;16367;48.736;9.218;2024-03-08T01:20:52;-23243.09;;;2.36;100.00
29385;BME280;16367;48.736;9.218;2024-03-08T01:22:54;-23241.03;;;2.30;100.00
29385;BME280;16367;48.736;9.218;2024-03-08T01:24:57;-23239.13;;;2.23;100.00
29385;BME280;16367;48.736;9.218;2024-03-08T01:27:00;-23239.28;;;2.24;100.00
29385;BME280;16367;48.736;9.218;2024-03-08T01:29:04;-23238.16;;;2.20;100.00
29385;BME280;16367;48.736;9.218;2024-03-08T01:31:08;-23238.16;;;2.20;100.00
29385;BME280;16367;48.736;9.218;2024-03-08T01:33:11;-23234.31;;;2.08;100.00
29385;BME280;16367;48.736;9.218;2024-03-08T01:35:13;-23238.16;;;2.20;100.00
29385;BME280;16367;48.736;9.218;2024-03-08T01:37:16;-23240.72;;;2.28;100.00
29385;BME280;16367;48.736;9.218;2024-03-08T01:39:19;-23238.16;;;2.20;100.00
29385;BME280;16367;48.736;9.218;2024-03-08T01:41:23;-23237.69;;;2.19;100.00
29385;BME280;16367;48.736;9.218;2024-03-08T01:43:27;-23233.38;;;2.05;100.00
29385;BME280;16367;48.736;9.218;2024-03-08T01:45:32;-23233.53;;;2.06;100.00
29385;BME280;16367;48.736;9.218;2024-03-08T01:47:37;-23233.69;;;2.06;100.00
29385;BME280;16367;48.736;9.218;2024-03-08T01:49:40;-23234.00;;;2.07;100.00
29385;BME280;16367;48.736;9.218;2024-03-08T01:51:44;-23233.03;;;2.04;100.00
29385;BME280;16367;48.736;9.218;2024-03-08T01:53:46;-23232.72;;;2.03;100.00
29385;BME280;16367;48.736;9.218;2024-03-08T01:55:52;-23234.00;;;2.07;100.00
29385;BME280;16367;48.736;9.218;2024-03-08T01:57:57;-23231.63;;;2.00;100.00
29385;BME280;16367;48.736;9.218;2024-03-08T02:00:01;-23234.00;;;2.07;100.00
29385;BME280;16367;48.736;9.218;2024-03-08T02:02:08;-23231.78;;;2.00;100.00
29385;BME280;16367;48.736;9.218;2024-03-08T02:04:14;-23229.38;;;1.93;100.00
29385;BME280;16367;48.736;9.218;2024-03-08T02:06:17;-23229.53;;;1.93;100.00
29385;BME280;16367;48.736;9.218;2024-03-08T02:08:21;-23229.53;;;1.93;100.00
29385;BME280;16367;48.736;9.218;2024-03-08T02:10:24;-23230.19;;;1.95;100.00
29385;BME280;16367;48.736;9.218;2024-03-08T02:12:27;-23230.03;;;1.95;100.00
29385;BME280;16367;48.736;9.218;2024-03-08T02:14:31;-23230.34;;;1.96;100.00
29385;BME280;16367;48.736;9.218;2024-03-08T02:16:34;-23229.06;;;1.92;100.00
29385;BME280;16367;48.736;9.218;2024-03-08T02:18:37;-23227.94;;;1.88;100.00
29385;BME280;16367;48.736;9.218;2024-03-08T02:20:43;-23228.25;;;1.89;100.00
29385;BME280;16367;48.736;9.218;2024-03-08T02:22:45;-23227.94;;;1.88;100.00
29385;BME280;16367;48.736;9.218;2024-03-08T02:24:48;-23224.44;;;1.77;100.00
29385;BME280;16367;48.736;9.218;2024-03-08T02:26:50;-23226.66;;;1.84;100.00
29385;BME280;16367;48.736;9.218;2024-03-08T02:28:52;-23225.38;;;1.80;100.00
29385;BME280;16367;48.736;9.218;2024-03-08T02:30:55;-23224.44;;;1.77;100.00
29385;BME280;16367;48.736;9.218;2024-03-08T02:32:59;-23224.59;;;1.78;100.00
29385;BME280;16367;48.736;9.218;2024-03-08T02:35:02;-23224.75;;;1.78;100.00
29385;BME280;16367;48.736;9.218;2024-03-08T02:37:06;-23225.22;;;1.80;100.00
29385;BME280;16367;48.736;9.218;2024-03-08T02:39:10;-23222.69;;;1.72;100.00
29385;BME280;16367;48.736;9.218;2024-03-08T02:41:12;-23223.94;;;1.76;100.00
29385;BME280;16367;48.736;9.218;2024-03-08T02:43:15;-23221.72;;;1.69;100.00
29385;BME280;16367;48.736;9.218;2024-03-08T02:45:19;-23218.38;;;1.58;100.00
29385;BME280;16367;48.736;9.218;2024-03-08T02:47:22;-23220.59;;;1.65;100.00
29385;BME280;16367;48.736;9.218;2024-03-08T02:49:28;-23222.19;;;1.70;100.00
29385;BME280;16367;48.736;9.218;2024-03-08T02:51:31;-23219.97;;;1.63;100.00
29385;BME280;16367;48.736;9.218;2024-03-08T02:53:34;-23217.72;;;1.56;100.00
29385;BME280;16367;48.736;9.218;2024-03-08T02:55:37;-23218.84;;;1.60;100.00
29385;BME280;16367;48.736;9.218;2024-03-08T02:57:39;-23216.78;;;1.53;100.00
29385;BME280;16367;48.736;9.218;2024-03-08T02:59:42;-23216.63;;;1.52;100.00
29385;BME280;16367;48.736;9.218;2024-03-08T03:01:45;-23215.66;;;1.49;100.00
29385;BME280;16367;48.736;9.218;2024-03-08T03:03:48;-23216.94;;;1.54;100.00
29385;BME280;16367;48.736;9.218;2024-03-08T03:05:50;-23214.06;;;1.44;100.00
29385;BME280;16367;48.736;9.218;2024-03-08T03:07:53;-23216.28;;;1.51;100.00
29385;BME280;16367;48.736;9.218;2024-03-08T03:09:57;-23215.66;;;1.49;100.00
29385;BME280;16367;48.736;9.218;2024-03-08T03:12:00;-23214.38;;;1.45;100.00
29385;BME280;16367;48.736;9.218;2024-03-08T03:14:04;-23214.84;;;1.47;100.00
29385;BME280;16367;48.736;9.218;2024-03-08T03:16:10;-23214.22;;;1.45;100.00
29385;BME280;16367;48.736;9.218;2024-03-08T03:18:13;-23213.09;;;1.41;100.00
29385;BME280;16367;48.736;9.218;2024-03-08T03:20:17;-23213.56;;;1.43;100.00
29385;BME280;16367;48.736;9.218;2024-03-08T03:22:24;-23212.31;;;1.39;100.00
29385;BME280;16367;48.736;9.218;2024-03-08T03:24:27;-23211.34;;;1.36;100.00
29385;BME280;16367;48.736;9.218;2024-03-08T03:26:32;-23211.66;;;1.37;100.00
29385;BME280;16367;48.736;9.218;2024-03-08T03:28:35;-23210.69;;;1.34;100.00
29385;BME280;16367;48.736;9.218;2024-03-08T03:30:41;-23211.19;;;1.35;100.00
29385;BME280;16367;48.736;9.218;2024-03-08T03:32:44;-23209.28;;;1.29;100.00
29385;BME280;16367;48.736;9.218;2024-03-08T03:34:48;-23211.03;;;1.35;100.00
29385;BME280;16367;48.736;9.218;2024-03-08T03:36:54;-23206.25;;;1.20;100.00
29385;BME280;16367;48.736;9.218;2024-03-08T03:38:57;-23207.19;;;1.23;100.00
29385;BME280;16367;48.736;9.218;2024-03-08T03:41:12;-23206.56;;;1.21;100.00
29385;BME280;16367;48.736;9.218;2024-03-08T03:43:17;-23204.63;;;1.15;100.00
29385;BME280;16367;48.736;9.218;2024-03-08T03:45:20;-23208.94;;;1.28;100.00
29385;BME280;16367;48.736;9.218;2024-03-08T03:47:22;-23206.56;;;1.21;100.00
29385;BME280;16367;48.736;9.218;2024-03-08T03:49:25;-23203.19;;;1.10;100.00
29385;BME280;16367;48.736;9.218;2024-03-08T03:51:26;-23204.97;;;1.16;100.00
29385;BME280;16367;48.736;9.218;2024-03-08T03:53:30;-23205.28;;;1.17;100.00
29385;BME280;16367;48.736;9.218;2024-03-08T03:55:33;-23204.97;;;1.16;100.00
29385;BME280;16367;48.736;9.218;2024-03-08T03:57:36;-23204.00;;;1.13;100.00
29385;BME280;16367;48.736;9.218;2024-03-08T03:59:40;-23205.91;;;1.19;100.00
29385;BME280;16367;48.736;9.218;2024-03-08T04:01:43;-23204.16;;;1.13;100.00
29385;BME280;16367;48.736;9.218;2024-03-08T04:03:46;-23204.00;;;1.13;100.00
29385;BME280;16367;48.736;9.218;2024-03-08T04:05:48;-23203.84;;;1.12;100.00
29385;BME280;16367;48.736;9.218;2024-03-08T04:07:51;-23201.75;;;1.06;100.00
29385;BME280;16367;48.736;9.218;2024-03-08T04:09:53;-23200.81;;;1.03;100.00
29385;BME280;16367;48.736;9.218;2024-03-08T04:11:56;-23203.69;;;1.12;100.00
29385;BME280;16367;48.736;9.218;2024-03-08T04:13:59;-23202.41;;;1.08;100.00
29385;BME280;16367;48.736;9.218;2024-03-08T04:16:04;-23197.28;;;0.92;100.00
29385;BME280;16367;48.736;9.218;2024-03-08T04:18:09;-23198.09;;;0.94;100.00
29385;BME280;16367;48.736;9.218;2024-03-08T04:20:11;-23199.53;;;0.99;100.00
29385;BME280;16367;48.736;9.218;2024-03-08T04:22:16;-23197.94;;;0.94;100.00
29385;BME280;16367;48.736;9.218;2024-03-08T04:24:19;-23198.56;;;0.96;100.00
29385;BME280;16367;48.736;9.218;2024-03-08T04:26:21;-23197.78;;;0.93;100.00
29385;BME280;16367;48.736;9.218;2024-03-08T04:28:23;-23198.88;;;0.97;100.00
29385;BME280;16367;48.736;9.218;2024-03-08T04:30:28;-23197.94;;;0.94;100.00
29385;BME280;16367;48.736;9.218;2024-03-08T04:32:32;-23198.88;;;0.97;100.00
29385;BME280;16367;48.736;9.218;2024-03-08T04:34:35;-23196.66;;;0.90;100.00
29385;BME280;16367;48.736;9.218;2024-03-08T04:36:37;-23198.09;;;0.94;100.00
29385;BME280;16367;48.736;9.218;2024-03-08T04:38:40;-23199.84;;;1.00;100.00
29385;BME280;16367;48.736;9.218;2024-03-08T04:40:43;-23195.69;;;0.87;100.00
29385;BME280;16367;48.736;9.218;2024-03-08T04:42:46;-23197.13;;;0.91;100.00
29385;BME280;16367;48.736;9.218;2024-03-08T04:44:52;-23197.28;;;0.92;100.00
29385;BME280;16367;48.736;9.218;2024-03-08T04:46:56;-23194.25;;;0.82;100.00
29385;BME280;16367;48.736;9.218;2024-03-08T04:49:00;-23194.09;;;0.82;100.00
29385;BME280;16367;48.736;9.218;2024-03-08T04:51:03;-23194.41;;;0.83;100.00
29385;BME280;16367;48.736;9.218;2024-03-08T04:53:07;-23195.38;;;0.86;100.00
29385;BME280;16367;48.736;9.218;2024-03-08T04:55:10;-23192.97;;;0.78;100.00
29385;BME280;16367;48.736;9.218;2024-03-08T04:57:12;-23194.41;;;0.83;100.00
29385;BME280;16367;48.736;9.218;2024-03-08T04:59:14;-23195.38;;;0.86;100.00
29385;BME280;16367;48.736;9.218;2024-03-08T05:01:17;-23194.59;;;0.83;100.00
29385;BME280;16367;48.736;9.218;2024-03-08T05:03:20;-23193.16;;;0.79;100.00
29385;BME280;16367;48.736;9.218;2024-03-08T05:05:24;-23193.31;;;0.79;100.00
29385;BME280;16367;48.736;9.218;2024-03-08T05:07:27;-23191.06;;;0.72;100.00
29385;BME280;16367;48.736;9.218;2024-03-08T05:09:29;-23192.19;;;0.75;100.00
29385;BME280;16367;48.736;9.218;2024-03-08T05:11:33;-23190.28;;;0.69;100.00
29385;BME280;16367;48.736;9.218;2024-03-08T05:13:35;-23192.19;;;0.75;100.00
29385;BME280;16367;48.736;9.218;2024-03-08T05:15:39;-23192.19;;;0.75;100.00
29385;BME280;16367;48.736;9.218;2024-03-08T05:17:42;-23190.91;;;0.71;100.00
29385;BME280;16367;48.736;9.218;2024-03-08T05:19:45;-23189.94;;;0.68;100.00
29385;BME280;16367;48.736;9.218;2024-03-08T05:21:49;-23188.66;;;0.64;100.00
29385;BME280;16367;48.736;9.218;2024-03-08T05:23:52;-23189.00;;;0.65;100.00
29385;BME280;16367;48.736;9.218;2024-03-08T05:25:54;-23193.47;;;0.80;100.00
29385;BME280;16367;48.736;9.218;2024-03-08T05:27:57;-23192.66;;;0.77;100.00
29385;BME280;16367;48.736;9.218;2024-03-08T05:30:00;-23193.94;;;0.81;100.00
29385;BME280;16367;48.736;9.218;2024-03-08T05:32:04;-23193.16;;;0.79;100.00
29385;BME280;16367;48.736;9.218;2024-03-08T05:34:08;-23192.50;;;0.77;100.00
29385;BME280;16367;48.736;9.218;2024-03-08T05:36:11;-23191.22;;;0.72;100.00
29385;BME280;16367;48.736;9.218;2024-03-08T05:38:15;-23191.22;;;0.72;100.00
29385;BME280;16367;48.736;9.218;2024-03-08T05:40:18;-23191.06;;;0.72;100.00
29385;BME280;16367;48.736;9.218;2024-03-08T05:42:24;-23193.16;;;0.79;100.00
29385;BME280;16367;48.736;9.218;2024-03-08T05:44:26;-23190.28;;;0.69;100.00
29385;BME280;16367;48.736;9.218;2024-03-08T05:46:30;-23189.31;;;0.66;100.00
29385;BME280;16367;48.736;9.218;2024-03-08T05:48:33;-23189.00;;;0.65;100.00
29385;BME280;16367;48.736;9.218;2024-03-08T05:50:36;-23190.09;;;0.69;100.00
29385;BME280;16367;48.736;9.218;2024-03-08T05:52:38;-23191.53;;;0.73;100.00
29385;BME280;16367;48.736;9.218;2024-03-08T05:54:43;-23190.91;;;0.71;100.00
29385;BME280;16367;48.736;9.218;2024-03-08T05:56:47;-23190.75;;;0.71;100.00
29385;BME280;16367;48.736;9.218;2024-03-08T05:58:50;-23194.41;;;0.83;100.00
29385;BME280;16367;48.736;9.218;2024-03-08T06:00:51;-23188.84;;;0.65;100.00
29385;BME280;16367;48.736;9.218;2024-03-08T06:02:54;-23191.72;;;0.74;100.00
29385;BME280;16367;48.736;9.218;2024-03-08T06:04:57;-23190.44;;;0.70;100.00
29385;BME280;16367;48.736;9.218;2024-03-08T06:07:00;-23192.50;;;0.77;100.00
29385;BME280;16367;48.736;9.218;2024-03-08T06:09:04;-23189.94;;;0.68;100.00
29385;BME280;16367;48.736;9.218;2024-03-08T06:11:15;-23190.28;;;0.69;100.00
29385;BME280;16367;48.736;9.218;2024-03-08T06:13:18;-23195.06;;;0.85;100.00
29385;BME280;16367;48.736;9.218;2024-03-08T06:15:21;-23192.97;;;0.78;100.00
29385;BME280;16367;48.736;9.218;2024-03-08T06:17:24;-23196.66;;;0.90;100.00
29385;BME280;16367;48.736;9.218;2024-03-08T06:19:27;-23196.50;;;0.89;100.00
29385;BME280;16367;48.736;9.218;2024-03-08T06:21:29;-23192.81;;;0.77;100.00
29385;BME280;16367;48.736;9.218;2024-03-08T06:23:34;-23194.59;;;0.83;100.00
29385;BME280;16367;48.736;9.218;2024-03-08T06:25:39;-23200.16;;;1.01;100.00
29385;BME280;16367;48.736;9.218;2024-03-08T06:27:44;-23196.81;;;0.90;100.00
29385;BME280;16367;48.736;9.218;2024-03-08T06:29:48;-23202.09;;;1.07;100.00
29385;BME280;16367;48.736;9.218;2024-03-08T06:31:50;-23204.31;;;1.14;100.00
29385;BME280;16367;48.736;9.218;2024-03-08T06:33:57;-23205.44;;;1.17;100.00
29385;BME280;16367;48.736;9.218;2024-03-08T06:36:00;-23206.41;;;1.20;100.00
29385;BME280;16367;48.736;9.218;2024-03-08T06:38:03;-23206.41;;;1.20;100.00
29385;BME280;16367;48.736;9.218;2024-03-08T06:40:07;-23208.16;;;1.26;100.00
29385;BME280;16367;48.736;9.218;2024-03-08T06:42:15;-23212.00;;;1.38;100.00
29385;BME280;16367;48.736;9.218;2024-03-08T06:44:19;-23213.56;;;1.43;100.00
29385;BME280;16367;48.736;9.218;2024-03-08T06:46:23;-23212.00;;;1.38;100.00
29385;BME280;16367;48.736;9.218;2024-03-08T06:48:26;-23220.59;;;1.65;100.00
29385;BME280;16367;48.736;9.218;2024-03-08T06:50:31;-23221.09;;;1.67;100.00
29385;BME280;16367;48.736;9.218;2024-03-08T06:52:34;-23216.78;;;1.53;100.00
29385;BME280;16367;48.736;9.218;2024-03-08T06:54:37;-23218.53;;;1.59;100.00
29385;BME280;16367;48.736;9.218;2024-03-08T06:56:40;-23212.31;;;1.39;100.00
29385;BME280;16367;48.736;9.218;2024-03-08T06:58:43;-23223.31;;;1.74;100.00
29385;BME280;16367;48.736;9.218;2024-03-08T07:00:48;-23222.50;;;1.71;100.00
29385;BME280;16367;48.736;9.218;2024-03-08T07:02:53;-23227.94;;;1.88;100.00
29385;BME280;16367;48.736;9.218;2024-03-08T07:04:56;-23220.75;;;1.66;100.00
29385;BME280;16367;48.736;9.218;2024-03-08T07:06:59;-23225.56;;;1.81;100.00
29385;BME280;16367;48.736;9.218;2024-03-08T07:09:04;-23231.47;;;1.99;100.00
29385;BME280;16367;48.736;9.218;2024-03-08T07:11:07;-23235.28;;;2.11;100.00
29385;BME280;16367;48.736;9.218;2024-03-08T07:13:10;-23240.06;;;2.26;100.00
29385;BME280;16367;48.736;9.218;2024-03-08T07:15:13;-23228.25;;;1.89;100.00
29385;BME280;16367;48.736;9.218;2024-03-08T07:17:18;-23230.50;;;1.96;100.00
29385;BME280;16367;48.736;9.218;2024-03-08T07:19:20;-23227.63;;;1.87;100.00
29385;BME280;16367;48.736;9.218;2024-03-08T07:21:24;-23232.41;;;2.02;100.00
29385;BME280;16367;48.736;9.218;2024-03-08T07:23:27;-23235.59;;;2.12;100.00
29385;BME280;16367;48.736;9.218;2024-03-08T07:25:48;-23235.13;;;2.11;100.00
29385;BME280;16367;48.736;9.218;2024-03-08T07:27:51;-23233.03;;;2.04;100.00
29385;BME280;16367;48.736;9.218;2024-03-08T07:29:54;-23242.31;;;2.34;100.00
29385;BME280;16367;48.736;9.218;2024-03-08T07:32:00;-23243.75;;;2.38;100.00
29385;BME280;16367;48.736;9.218;2024-03-08T07:34:15;-23243.56;;;2.38;100.00
29385;BME280;16367;48.736;9.218;2024-03-08T07:36:18;-23247.56;;;2.50;100.00
29385;BME280;16367;48.736;9.218;2024-03-08T07:38:21;-23241.97;;;2.33;100.00
29385;BME280;16367;48.736;9.218;2024-03-08T07:40:23;-23246.28;;;2.46;100.00
29385;BME280;16367;48.736;9.218;2024-03-08T07:42:26;-23251.22;;;2.62;100.00
29385;BME280;16367;48.736;9.218;2024-03-08T07:44:30;-23248.03;;;2.52;100.00
29385;BME280;16367;48.736;9.218;2024-03-08T07:46:33;-23244.06;;;2.39;100.00
29385;BME280;16367;48.736;9.218;2024-03-08T07:48:36;-23246.13;;;2.46;100.00
29385;BME280;16367;48.736;9.218;2024-03-08T07:50:41;-23243.56;;;2.38;100.00
29385;BME280;16367;48.736;9.218;2024-03-08T07:52:44;-23247.09;;;2.49;100.00
29385;BME280;16367;48.736;9.218;2024-03-08T07:54:46;-23243.41;;;2.37;100.00
29385;BME280;16367;48.736;9.218;2024-03-08T07:56:50;-23247.41;;;2.50;100.00
29385;BME280;16367;48.736;9.218;2024-03-08T07:58:54;-23249.63;;;2.57;100.00
29385;BME280;16367;48.736;9.218;2024-03-08T08:00:57;-23243.91;;;2.39;100.00
29385;BME280;16367;48.736;9.218;2024-03-08T08:03:00;-23246.78;;;2.48;100.00
29385;BME280;16367;48.736;9.218;2024-03-08T08:05:03;-23247.56;;;2.50;100.00
29385;BME280;16367;48.736;9.218;2024-03-08T08:07:08;-23242.63;;;2.35;100.00
29385;BME280;16367;48.736;9.218;2024-03-08T08:09:10;-23245.50;;;2.44;100.00
29385;BME280;16367;48.736;9.218;2024-03-08T08:11:16;-23249.97;;;2.58;100.00
29385;BME280;16367;48.736;9.218;2024-03-08T08:13:19;-23249.63;;;2.57;100.00
29385;BME280;16367;48.736;9.218;2024-03-08T08:15:21;-23250.91;;;2.61;100.00
29385;BME280;16367;48.736;9.218;2024-03-08T08:17:24;-23245.81;;;2.45;100.00
29385;BME280;16367;48.736;9.218;2024-03-08T08:19:27;-23250.59;;;2.60;100.00
29385;BME280;16367;48.736;9.218;2024-03-08T08:21:30;-23254.09;;;2.71;100.00
29385;BME280;16367;48.736;9.218;2024-03-08T08:23:34;-23252.81;;;2.67;100.00
29385;BME280;16367;48.736;9.218;2024-03-08T08:25:36;-23251.88;;;2.64;100.00
29385;BME280;16367;48.736;9.218;2024-03-08T08:27:39;-23249.00;;;2.55;100.00
29385;BME280;16367;48.736;9.218;2024-03-08T08:29:44;-23250.91;;;2.61;100.00
29385;BME280;16367;48.736;9.218;2024-03-08T08:31:47;-23253.00;;;2.67;100.00
29385;BME280;16367;48.736;9.218;2024-03-08T08:33:51;-23253.16;;;2.68;100.00
29385;BME280;16367;48.736;9.218;2024-03-08T08:35:59;-23255.69;;;2.76;100.00
29385;BME280;16367;48.736;9.218;2024-03-08T08:38:02;-23256.97;;;2.80;100.00
29385;BME280;16367;48.736;9.218;2024-03-08T08:40:07;-23258.25;;;2.84;100.00
29385;BME280;16367;48.736;9.218;2024-03-08T08:42:12;-23256.66;;;2.79;100.00
29385;BME280;16367;48.736;9.218;2024-03-08T08:44:15;-23251.72;;;2.63;100.00
29385;BME280;16367;48.736;9.218;2024-03-08T08:46:18;-23253.47;;;2.69;100.00
29385;BME280;16367;48.736;9.218;2024-03-08T08:48:21;-23263.50;;;3.00;100.00
29385;BME280;16367;48.736;9.218;2024-03-08T08:50:26;-23264.16;;;3.03;100.00
29385;BME280;16367;48.736;9.218;2024-03-08T08:52:30;-23265.91;;;3.08;100.00
29385;BME280;16367;48.736;9.218;2024-03-08T08:54:33;-23265.91;;;3.08;100.00
29385;BME280;16367;48.736;9.218;2024-03-08T08:56:38;-23260.66;;;2.91;100.00
29385;BME280;16367;48.736;9.218;2024-03-08T08:58:41;-23265.91;;;3.08;100.00
29385;BME280;16367;48.736;9.218;2024-03-08T09:00:44;-23264.63;;;3.04;100.00
29385;BME280;16367;48.736;9.218;2024-03-08T09:02:46;-23260.16;;;2.90;100.00
29385;BME280;16367;48.736;9.218;2024-03-08T09:04:50;-23257.28;;;2.81;100.00
29385;BME280;16367;48.736;9.218;2024-03-08T09:06:53;-23257.63;;;2.82;100.00
29385;BME280;16367;48.736;9.218;2024-03-08T09:08:56;-23264.78;;;3.05;100.00
29385;BME280;16367;48.736;9.218;2024-03-08T09:10:59;-23265.25;;;3.06;100.00
29385;BME280;16367;48.736;9.218;2024-03-08T09:13:03;-23265.75;;;3.08;100.00
29385;BME280;16367;48.736;9.218;2024-03-08T09:15:10;-23257.63;;;2.82;100.00
29385;BME280;16367;48.736;9.218;2024-03-08T09:17:14;-23257.28;;;2.81;100.00
29385;BME280;16367;48.736;9.218;2024-03-08T09:19:19;-23257.28;;;2.81;100.00
29385;BME280;16367;48.736;9.218;2024-03-08T09:21:22;-23261.75;;;2.95;100.00
29385;BME280;16367;48.736;9.218;2024-03-08T09:23:26;-23264.47;;;3.03;100.00
29385;BME280;16367;48.736;9.218;2024-03-08T09:25:31;-23263.19;;;2.99;100.00
29385;BME280;16367;48.736;9.218;2024-03-08T09:27:34;-23264.47;;;3.03;100.00
29385;BME280;16367;48.736;9.218;2024-03-08T09:29:42;-23263.19;;;2.99;100.00
29385;BME280;16367;48.736;9.218;2024-03-08T09:31:46;-23266.22;;;3.09;100.00
29385;BME280;16367;48.736;9.218;2024-03-08T09:33:49;-23272.75;;;3.30;100.00
29385;BME280;16367;48.736;9.218;2024-03-08T09:35:52;-23272.59;;;3.29;100.00
29385;BME280;16367;48.736;9.218;2024-03-08T09:37:54;-23274.50;;;3.35;100.00
29385;BME280;16367;48.736;9.218;2024-03-08T09:39:57;-23279.13;;;3.50;100.00
29385;BME280;16367;48.736;9.218;2024-03-08T09:42:01;-23275.31;;;3.38;100.00
29385;BME280;16367;48.736;9.218;2024-03-08T09:44:05;-23274.50;;;3.35;100.00
29385;BME280;16367;48.736;9.218;2024-03-08T09:46:09;-23281.03;;;3.56;100.00
29385;BME280;16367;48.736;9.218;2024-03-08T09:48:13;-23282.81;;;3.61;100.00
29385;BME280;16367;48.736;9.218;2024-03-08T09:50:16;-23278.97;;;3.49;100.00
29385;BME280;16367;48.736;9.218;2024-03-08T09:52:20;-23278.66;;;3.48;100.00
29385;BME280;16367;48.736;9.218;2024-03-08T09:54:23;-23287.09;;;3.75;100.00
29385;BME280;16367;48.736;9.218;2024-03-08T09:56:28;-23287.91;;;3.77;100.00
29385;BME280;16367;48.736;9.218;2024-03-08T09:58:31;-23271.97;;;3.27;100.00
29385;BME280;16367;48.736;9.218;2024-03-08T10:00:53;-23267.81;;;3.14;100.00
29385;BME280;16367;48.736;9.218;2024-03-08T10:03:01;-23278.34;;;3.47;100.00
29385;BME280;16367;48.736;9.218;2024-03-08T10:05:05;-23281.53;;;3.57;100.00
29385;BME280;16367;48.736;9.218;2024-03-08T10:07:08;-23295.22;;;4.01;100.00
29385;BME280;16367;48.736;9.218;2024-03-08T10:09:11;-23282.81;;;3.61;100.00
29385;BME280;16367;48.736;9.218;2024-03-08T10:11:13;-23287.91;;;3.77;100.00
29385;BME280;16367;48.736;9.218;2024-03-08T10:13:16;-23302.56;;;4.24;100.00
29385;BME280;16367;48.736;9.218;2024-03-08T10:15:21;-23307.00;;;4.38;98.59
29385;BME280;16367;48.736;9.218;2024-03-08T10:17:25;-23299.38;;;4.14;98.77
29385;BME280;16367;48.736;9.218;2024-03-08T10:19:29;-23306.69;;;4.37;98.21
29385;BME280;16367;48.736;9.218;2024-03-08T10:21:32;-23306.84;;;4.37;98.94
29385;BME280;16367;48.736;9.218;2024-03-08T10:23:35;-23298.72;;;4.12;98.42
29385;BME280;16367;48.736;9.218;2024-03-08T10:25:38;-23302.22;;;4.23;98.69
29385;BME280;16367;48.736;9.218;2024-03-08T10:27:41;-23307.81;;;4.40;97.08
29385;BME280;16367;48.736;9.218;2024-03-08T10:29:47;-23311.16;;;4.51;96.55
29385;BME280;16367;48.736;9.218;2024-03-08T10:31:49;-23304.16;;;4.29;96.41
29385;BME280;16367;48.736;9.218;2024-03-08T10:33:53;-23314.50;;;4.62;96.18
29385;BME280;16367;48.736;9.218;2024-03-08T10:35:57;-23307.31;;;4.39;96.73
29385;BME280;16367;48.736;9.218;2024-03-08T10:38:03;-23319.91;;;4.79;95.81
29385;BME280;16367;48.736;9.218;2024-03-08T10:40:10;-23315.28;;;4.64;96.00
29385;BME280;16367;48.736;9.218;2024-03-08T10:42:18;-23321.81;;;4.85;95.05
29385;BME280;16367;48.736;9.218;2024-03-08T10:44:32;-23321.81;;;4.85;94.75
29385;BME280;16367;48.736;9.218;2024-03-08T10:46:51;-23323.09;;;4.89;95.24